sensor_id;sensor_type;location;lat;lon;timestamp;P1;durP1;ratioP1;P2;durP2;ratioP2
53781;SDS011;39692;53.114;7.060;2022-12-07T00:01:13;6.75;;;3.70;;
53781;SDS011;39692;53.114;7.060;2022-12-07T00:03:41;11.88;;;3.17;;
53781;SDS011;39692;53.114;7.060;2022-12-07T00:06:09;6.85;;;3.22;;
53781;SDS011;39692;53.114;7.060;2022-12-07T00:08:36;8.20;;;3.05;;
53781;SDS011;39692;53.114;7.060;2022-12-07T00:11:05;6.97;;;3.67;;
53781;SDS011;39692;53.114;7.060;2022-12-07T00:13:33;4.68;;;2.08;;
53781;SDS011;39692;53.114;7.060;2022-12-07T00:16:04;13.57;;;2.83;;
53781;SDS011;39692;53.114;7.060;2022-12-07T00:18:31;8.30;;;2.03;;
53781;SDS011;39692;53.114;7.060;2022-12-07T00:21:01;4.07;;;1.85;;
53781;SDS011;39692;53.114;7.060;2022-12-07T00:23:29;11.80;;;2.47;;
53781;SDS011;39692;53.114;7.060;2022-12-07T00:25:55;6.45;;;1.73;;
53781;SDS011;39692;53.114;7.060;2022-12-07T00:28:20;5.53;;;1.58;;
53781;SDS011;39692;53.114;7.060;2022-12-07T00:30:46;3.10;;;1.65;;
53781;SDS011;39692;53.114;7.060;2022-12-07T00:33:12;4.93;;;1.88;;
53781;SDS011;39692;53.114;7.060;2022-12-07T00:35:38;5.93;;;1.95;;
53781;SDS011;39692;53.114;7.060;2022-12-07T00:38:03;4.40;;;1.27;;
53781;SDS011;39692;53.114;7.060;2022-12-07T00:40:29;2.35;;;1.00;;
53781;SDS011;39692;53.114;7.060;2022-12-07T00:42:55;2.65;;;1.05;;
53781;SDS011;39692;53.114;7.060;2022-12-07T00:45:20;3.90;;;1.00;;
53781;SDS011;39692;53.114;7.060;2022-12-07T00:47:46;4.80;;;1.08;;
53781;SDS011;39692;53.114;7.060;2022-12-07T00:50:11;3.63;;;1.38;;
53781;SDS011;39692;53.114;7.060;2022-12-07T00:52:37;10.55;;;1.77;;
53781;SDS011;39692;53.114;7.060;2022-12-07T00:55:03;4.50;;;0.68;;
53781;SDS011;39692;53.114;7.060;2022-12-07T00:57:29;3.65;;;0.80;;
53781;SDS011;39692;53.114;7.060;2022-12-07T00:59:55;3.45;;;1.15;;
53781;SDS011;39692;53.114;7.060;2022-12-07T01:02:23;4.47;;;0.80;;
53781;SDS011;39692;53.114;7.060;2022-12-07T01:04:48;4.00;;;1.20;;
53781;SDS011;39692;53.114;7.060;2022-12-07T01:07:14;6.63;;;1.33;;
53781;SDS011;39692;53.114;7.060;2022-12-07T01:09:40;2.17;;;0.50;;
53781;SDS011;39692;53.114;7.060;2022-12-07T01:12:06;0.73;;;0.50;;
53781;SDS011;39692;53.114;7.060;2022-12-07T01:14:31;2.28;;;0.65;;
53781;SDS011;39692;53.114;7.060;2022-12-07T01:16:57;2.50;;;0.77;;
53781;SDS011;39692;53.114;7.060;2022-12-07T01:19:23;2.33;;;0.50;;
53781;SDS011;39692;53.114;7.060;2022-12-07T01:21:48;2.33;;;1.30;;
53781;SDS011;39692;53.114;7.060;2022-12-07T01:24:14;3.30;;;0.50;;
53781;SDS011;39692;53.114;7.060;2022-12-07T01:26:39;3.47;;;0.73;;
53781;SDS011;39692;53.114;7.060;2022-12-07T01:29:06;2.35;;;0.52;;
53781;SDS011;39692;53.114;7.060;2022-12-07T01:31:31;2.63;;;0.60;;
53781;SDS011;39692;53.114;7.060;2022-12-07T01:33:58;0.70;;;0.40;;
53781;SDS011;39692;53.114;7.060;2022-12-07T01:36:25;1.42;;;0.47;;
53781;SDS011;39692;53.114;7.060;2022-12-07T01:39:00;1.83;;;0.77;;
53781;SDS011;39692;53.114;7.060;2022-12-07T01:41:29;2.60;;;1.05;;
53781;SDS011;39692;53.114;7.060;2022-12-07T01:46:56;5.68;;;0.88;;
53781;SDS011;39692;53.114;7.060;2022-12-07T01:51:54;4.70;;;1.05;;
53781;SDS011;39692;53.114;7.060;2022-12-07T01:54:43;3.33;;;0.73;;
53781;SDS011;39692;53.114;7.060;2022-12-07T01:57:10;4.28;;;0.82;;
53781;SDS011;39692;53.114;7.060;2022-12-07T02:03:39;5.82;;;1.05;;
53781;SDS011;39692;53.114;7.060;2022-12-07T02:06:06;1.83;;;0.55;;
53781;SDS011;39692;53.114;7.060;2022-12-07T02:08:32;2.50;;;0.70;;
53781;SDS011;39692;53.114;7.060;2022-12-07T02:10:59;4.05;;;0.60;;
53781;SDS011;39692;53.114;7.060;2022-12-07T02:13:27;3.22;;;1.02;;
53781;SDS011;39692;53.114;7.060;2022-12-07T02:31:52;1.25;;;0.32;;
53781;SDS011;39692;53.114;7.060;2022-12-07T02:36:55;0.82;;;0.35;;
53781;SDS011;39692;53.114;7.060;2022-12-07T02:39:34;1.38;;;0.70;;
53781;SDS011;39692;53.114;7.060;2022-12-07T02:42:09;2.40;;;0.60;;
53781;SDS011;39692;53.114;7.060;2022-12-07T02:44:40;0.82;;;0.40;;
53781;SDS011;39692;53.114;7.060;2022-12-07T02:47:07;5.72;;;0.60;;
53781;SDS011;39692;53.114;7.060;2022-12-07T02:49:37;2.25;;;0.90;;
53781;SDS011;39692;53.114;7.060;2022-12-07T02:52:04;3.85;;;0.52;;
53781;SDS011;39692;53.114;7.060;2022-12-07T02:54:30;2.38;;;0.60;;
53781;SDS011;39692;53.114;7.060;2022-12-07T02:56:58;2.03;;;0.63;;
53781;SDS011;39692;53.114;7.060;2022-12-07T03:10:40;4.22;;;0.90;;
53781;SDS011;39692;53.114;7.060;2022-12-07T03:13:25;0.52;;;0.30;;
53781;SDS011;39692;53.114;7.060;2022-12-07T03:16:18;0.65;;;0.30;;
53781;SDS011;39692;53.114;7.060;2022-12-07T03:19:05;1.20;;;0.32;;
53781;SDS011;39692;53.114;7.060;2022-12-07T03:21:46;3.05;;;0.65;;
53781;SDS011;39692;53.114;7.060;2022-12-07T03:24:19;1.60;;;0.40;;
53781;SDS011;39692;53.114;7.060;2022-12-07T03:26:50;1.83;;;0.40;;
53781;SDS011;39692;53.114;7.060;2022-12-07T03:29:25;3.40;;;0.55;;
53781;SDS011;39692;53.114;7.060;2022-12-07T03:31:59;0.70;;;0.30;;
53781;SDS011;39692;53.114;7.060;2022-12-07T03:34:46;0.93;;;0.35;;
53781;SDS011;39692;53.114;7.060;2022-12-07T03:37:40;1.60;;;0.40;;
53781;SDS011;39692;53.114;7.060;2022-12-07T03:40:11;2.70;;;0.52;;
53781;SDS011;39692;53.114;7.060;2022-12-07T03:42:39;4.80;;;0.65;;
53781;SDS011;39692;53.114;7.060;2022-12-07T03:45:05;3.60;;;0.40;;
53781;SDS011;39692;53.114;7.060;2022-12-07T03:47:37;1.08;;;0.43;;
53781;SDS011;39692;53.114;7.060;2022-12-07T03:52:59;1.38;;;0.38;;
53781;SDS011;39692;53.114;7.060;2022-12-07T03:55:37;3.33;;;0.47;;
53781;SDS011;39692;53.114;7.060;2022-12-07T03:58:07;2.85;;;0.32;;
53781;SDS011;39692;53.114;7.060;2022-12-07T04:00:38;2.10;;;0.45;;
53781;SDS011;39692;53.114;7.060;2022-12-07T04:03:06;1.65;;;0.57;;
53781;SDS011;39692;53.114;7.060;2022-12-07T04:05:32;1.45;;;0.55;;
53781;SDS011;39692;53.114;7.060;2022-12-07T04:07:57;0.57;;;0.40;;
53781;SDS011;39692;53.114;7.060;2022-12-07T04:10:23;1.95;;;0.50;;
53781;SDS011;39692;53.114;7.060;2022-12-07T04:12:49;2.20;;;0.60;;
53781;SDS011;39692;53.114;7.060;2022-12-07T04:15:14;0.70;;;0.40;;
53781;SDS011;39692;53.114;7.060;2022-12-07T04:17:40;4.25;;;0.50;;
53781;SDS011;39692;53.114;7.060;2022-12-07T04:20:06;4.63;;;0.70;;
53781;SDS011;39692;53.114;7.060;2022-12-07T04:22:32;1.88;;;0.52;;
53781;SDS011;39692;53.114;7.060;2022-12-07T04:24:58;3.63;;;0.45;;
53781;SDS011;39692;53.114;7.060;2022-12-07T04:27:23;5.40;;;0.63;;
53781;SDS011;39692;53.114;7.060;2022-12-07T04:29:49;1.33;;;0.47;;
53781;SDS011;39692;53.114;7.060;2022-12-07T04:32:15;0.82;;;0.45;;
53781;SDS011;39692;53.114;7.060;2022-12-07T04:34:40;0.68;;;0.28;;
53781;SDS011;39692;53.114;7.060;2022-12-07T04:37:06;0.90;;;0.30;;
53781;SDS011;39692;53.114;7.060;2022-12-07T04:39:33;1.20;;;0.30;;
53781;SDS011;39692;53.114;7.060;2022-12-07T04:41:59;1.35;;;0.40;;
53781;SDS011;39692;53.114;7.060;2022-12-07T04:44:25;2.63;;;0.88;;
53781;SDS011;39692;53.114;7.060;2022-12-07T04:46:51;4.22;;;0.55;;
53781;SDS011;39692;53.114;7.060;2022-12-07T04:49:17;1.67;;;0.35;;
53781;SDS011;39692;53.114;7.060;2022-12-07T04:51:44;2.42;;;0.35;;
53781;SDS011;39692;53.114;7.060;2022-12-07T04:54:10;1.08;;;0.40;;
53781;SDS011;39692;53.114;7.060;2022-12-07T04:56:37;2.47;;;0.40;;
53781;SDS011;39692;53.114;7.060;2022-12-07T08:56:37;4.07;;;0.98;;
53781;SDS011;39692;53.114;7.060;2022-12-07T08:59:04;2.05;;;0.82;;
53781;SDS011;39692;53.114;7.060;2022-12-07T09:01:30;1.50;;;0.73;;
53781;SDS011;39692;53.114;7.060;2022-12-07T09:03:56;9.10;;;1.27;;
53781;SDS011;39692;53.114;7.060;2022-12-07T09:06:21;2.00;;;0.80;;
53781;SDS011;39692;53.114;7.060;2022-12-07T09:08:48;3.58;;;1.23;;
53781;SDS011;39692;53.114;7.060;2022-12-07T09:11:16;4.45;;;1.10;;
53781;SDS011;39692;53.114;7.060;2022-12-07T09:13:42;8.95;;;1.75;;
53781;SDS011;39692;53.114;7.060;2022-12-07T09:16:07;4.72;;;1.30;;
53781;SDS011;39692;53.114;7.060;2022-12-07T09:18:33;4.60;;;1.33;;
53781;SDS011;39692;53.114;7.060;2022-12-07T09:20:59;2.83;;;0.88;;
53781;SDS011;39692;53.114;7.060;2022-12-07T09:23:24;2.65;;;0.70;;
53781;SDS011;39692;53.114;7.060;2022-12-07T09:25:50;5.15;;;0.82;;
53781;SDS011;39692;53.114;7.060;2022-12-07T09:28:16;3.92;;;0.68;;
53781;SDS011;39692;53.114;7.060;2022-12-07T09:30:45;2.20;;;0.35;;
53781;SDS011;39692;53.114;7.060;2022-12-07T09:33:12;3.80;;;1.08;;
53781;SDS011;39692;53.114;7.060;2022-12-07T09:35:38;5.00;;;1.10;;
53781;SDS011;39692;53.114;7.060;2022-12-07T09:38:08;4.25;;;0.65;;
53781;SDS011;39692;53.114;7.060;2022-12-07T09:40:34;5.20;;;0.95;;
53781;SDS011;39692;53.114;7.060;2022-12-07T09:43:00;4.00;;;0.93;;
53781;SDS011;39692;53.114;7.060;2022-12-07T09:45:35;5.22;;;1.25;;
53781;SDS011;39692;53.114;7.060;2022-12-07T09:48:02;4.55;;;0.82;;
53781;SDS011;39692;53.114;7.060;2022-12-07T09:50:29;6.18;;;0.73;;
53781;SDS011;39692;53.114;7.060;2022-12-07T09:53:08;2.70;;;0.93;;
53781;SDS011;39692;53.114;7.060;2022-12-07T09:55:39;2.65;;;0.93;;
53781;SDS011;39692;53.114;7.060;2022-12-07T09:58:08;5.18;;;1.25;;
53781;SDS011;39692;53.114;7.060;2022-12-07T10:00:44;6.47;;;0.98;;
53781;SDS011;39692;53.114;7.060;2022-12-07T10:03:10;4.43;;;1.17;;
53781;SDS011;39692;53.114;7.060;2022-12-07T10:05:38;7.13;;;1.50;;
53781;SDS011;39692;53.114;7.060;2022-12-07T10:08:10;6.82;;;1.33;;
53781;SDS011;39692;53.114;7.060;2022-12-07T10:10:37;4.45;;;0.98;;
53781;SDS011;39692;53.114;7.060;2022-12-07T10:13:09;5.53;;;1.70;;
53781;SDS011;39692;53.114;7.060;2022-12-07T10:21:13;5.82;;;1.33;;
53781;SDS011;39692;53.114;7.060;2022-12-07T10:26:53;3.53;;;0.90;;
53781;SDS011;39692;53.114;7.060;2022-12-07T10:29:20;3.90;;;1.20;;
53781;SDS011;39692;53.114;7.060;2022-12-07T10:31:57;3.40;;;0.93;;
53781;SDS011;39692;53.114;7.060;2022-12-07T10:34:29;4.10;;;1.48;;
53781;SDS011;39692;53.114;7.060;2022-12-07T10:42:09;1.85;;;0.50;;
53781;SDS011;39692;53.114;7.060;2022-12-07T10:44:45;3.33;;;0.68;;
53781;SDS011;39692;53.114;7.060;2022-12-07T10:53:26;2.10;;;0.93;;
53781;SDS011;39692;53.114;7.060;2022-12-07T10:56:39;5.03;;;1.02;;
53781;SDS011;39692;53.114;7.060;2022-12-07T11:02:10;2.80;;;0.75;;
53781;SDS011;39692;53.114;7.060;2022-12-07T11:08:17;4.70;;;1.23;;
53781;SDS011;39692;53.114;7.060;2022-12-07T11:16:11;3.38;;;1.00;;
53781;SDS011;39692;53.114;7.060;2022-12-07T11:24:44;2.83;;;0.80;;
53781;SDS011;39692;53.114;7.060;2022-12-07T11:30:17;5.50;;;0.93;;
53781;SDS011;39692;53.114;7.060;2022-12-07T11:38:07;5.20;;;1.73;;
53781;SDS011;39692;53.114;7.060;2022-12-07T11:40:40;5.50;;;1.73;;
53781;SDS011;39692;53.114;7.060;2022-12-07T11:43:15;3.58;;;1.20;;
53781;SDS011;39692;53.114;7.060;2022-12-07T11:46:05;5.97;;;1.67;;
53781;SDS011;39692;53.114;7.060;2022-12-07T11:48:38;6.20;;;1.63;;
53781;SDS011;39692;53.114;7.060;2022-12-07T11:51:22;5.22;;;1.50;;
53781;SDS011;39692;53.114;7.060;2022-12-07T11:54:25;5.53;;;1.92;;
53781;SDS011;39692;53.114;7.060;2022-12-07T11:56:48;6.43;;;1.92;;
53781;SDS011;39692;53.114;7.060;2022-12-07T11:59:17;5.10;;;1.80;;
53781;SDS011;39692;53.114;7.060;2022-12-07T12:05:15;7.72;;;2.00;;
53781;SDS011;39692;53.114;7.060;2022-12-07T12:07:47;8.77;;;2.25;;
53781;SDS011;39692;53.114;7.060;2022-12-07T12:10:49;6.03;;;1.80;;
53781;SDS011;39692;53.114;7.060;2022-12-07T12:16:03;3.92;;;1.40;;
53781;SDS011;39692;53.114;7.060;2022-12-07T12:21:05;4.38;;;1.30;;
53781;SDS011;39692;53.114;7.060;2022-12-07T12:26:08;3.63;;;1.30;;
53781;SDS011;39692;53.114;7.060;2022-12-07T12:33:38;6.03;;;1.27;;
53781;SDS011;39692;53.114;7.060;2022-12-07T12:39:07;2.20;;;0.70;;
53781;SDS011;39692;53.114;7.060;2022-12-07T12:44:01;3.63;;;0.70;;
53781;SDS011;39692;53.114;7.060;2022-12-07T12:51:53;2.15;;;0.98;;
53781;SDS011;39692;53.114;7.060;2022-12-07T12:54:26;2.53;;;0.80;;
53781;SDS011;39692;53.114;7.060;2022-12-07T13:02:36;2.17;;;0.88;;
53781;SDS011;39692;53.114;7.060;2022-12-07T13:05:22;3.40;;;0.93;;
53781;SDS011;39692;53.114;7.060;2022-12-07T13:07:51;4.75;;;1.02;;
53781;SDS011;39692;53.114;7.060;2022-12-07T13:10:20;4.50;;;1.13;;
53781;SDS011;39692;53.114;7.060;2022-12-07T13:23:38;2.65;;;0.57;;
53781;SDS011;39692;53.114;7.060;2022-12-07T13:34:05;6.22;;;1.15;;
53781;SDS011;39692;53.114;7.060;2022-12-07T13:36:32;3.10;;;1.05;;
53781;SDS011;39692;53.114;7.060;2022-12-07T13:39:23;3.13;;;0.65;;
53781;SDS011;39692;53.114;7.060;2022-12-07T13:41:54;2.75;;;0.70;;
53781;SDS011;39692;53.114;7.060;2022-12-07T13:44:22;2.05;;;0.80;;
53781;SDS011;39692;53.114;7.060;2022-12-07T13:46:51;3.80;;;0.90;;
53781;SDS011;39692;53.114;7.060;2022-12-07T13:49:28;4.07;;;0.95;;
53781;SDS011;39692;53.114;7.060;2022-12-07T13:51:55;2.38;;;0.82;;
53781;SDS011;39692;53.114;7.060;2022-12-07T13:54:32;3.85;;;1.00;;
53781;SDS011;39692;53.114;7.060;2022-12-07T13:56:58;3.63;;;0.90;;
53781;SDS011;39692;53.114;7.060;2022-12-07T13:59:25;8.85;;;1.27;;
53781;SDS011;39692;53.114;7.060;2022-12-07T14:01:52;3.70;;;2.42;;
53781;SDS011;39692;53.114;7.060;2022-12-07T14:06:56;8.38;;;5.75;;
53781;SDS011;39692;53.114;7.060;2022-12-07T14:09:23;6.70;;;4.63;;
53781;SDS011;39692;53.114;7.060;2022-12-07T14:11:50;7.85;;;3.35;;
53781;SDS011;39692;53.114;7.060;2022-12-07T14:14:21;6.68;;;4.68;;
53781;SDS011;39692;53.114;7.060;2022-12-07T14:16:58;6.28;;;3.70;;
53781;SDS011;39692;53.114;7.060;2022-12-07T14:22:18;2.53;;;0.43;;
53781;SDS011;39692;53.114;7.060;2022-12-07T14:24:44;1.92;;;0.52;;
53781;SDS011;39692;53.114;7.060;2022-12-07T14:27:20;2.08;;;0.88;;
53781;SDS011;39692;53.114;7.060;2022-12-07T14:29:47;3.00;;;0.45;;
53781;SDS011;39692;53.114;7.060;2022-12-07T14:34:41;2.65;;;1.35;;
53781;SDS011;39692;53.114;7.060;2022-12-07T14:37:08;1.30;;;0.43;;
53781;SDS011;39692;53.114;7.060;2022-12-07T14:39:35;1.63;;;0.43;;
53781;SDS011;39692;53.114;7.060;2022-12-07T14:42:01;2.83;;;0.70;;
53781;SDS011;39692;53.114;7.060;2022-12-07T14:44:27;4.95;;;1.63;;
53781;SDS011;39692;53.114;7.060;2022-12-07T14:46:53;4.30;;;2.88;;
53781;SDS011;39692;53.114;7.060;2022-12-07T14:49:20;6.82;;;3.60;;
53781;SDS011;39692;53.114;7.060;2022-12-07T14:51:46;4.53;;;3.17;;
53781;SDS011;39692;53.114;7.060;2022-12-07T14:54:17;5.75;;;2.70;;
53781;SDS011;39692;53.114;7.060;2022-12-07T14:56:44;3.67;;;1.95;;
53781;SDS011;39692;53.114;7.060;2022-12-07T14:59:11;4.80;;;3.25;;
53781;SDS011;39692;53.114;7.060;2022-12-07T15:01:37;7.13;;;4.05;;
53781;SDS011;39692;53.114;7.060;2022-12-07T15:04:03;8.75;;;4.35;;
53781;SDS011;39692;53.114;7.060;2022-12-07T15:06:29;4.80;;;2.83;;
53781;SDS011;39692;53.114;7.060;2022-12-07T15:08:55;2.58;;;1.85;;
53781;SDS011;39692;53.114;7.060;2022-12-07T15:11:21;6.63;;;3.97;;
53781;SDS011;39692;53.114;7.060;2022-12-07T15:13:47;13.93;;;6.18;;
53781;SDS011;39692;53.114;7.060;2022-12-07T15:16:32;15.05;;;5.50;;
53781;SDS011;39692;53.114;7.060;2022-12-07T15:18:58;3.75;;;1.95;;
53781;SDS011;39692;53.114;7.060;2022-12-07T15:21:24;1.05;;;0.60;;
53781;SDS011;39692;53.114;7.060;2022-12-07T15:23:50;4.32;;;1.42;;
53781;SDS011;39692;53.114;7.060;2022-12-07T15:26:16;1.95;;;0.73;;
53781;SDS011;39692;53.114;7.060;2022-12-07T15:28:42;1.98;;;0.68;;
53781;SDS011;39692;53.114;7.060;2022-12-07T15:31:12;4.90;;;0.45;;
53781;SDS011;39692;53.114;7.060;2022-12-07T15:33:38;3.65;;;0.75;;
53781;SDS011;39692;53.114;7.060;2022-12-07T15:36:04;1.80;;;0.75;;
53781;SDS011;39692;53.114;7.060;2022-12-07T15:38:30;2.83;;;0.80;;
53781;SDS011;39692;53.114;7.060;2022-12-07T15:40:56;1.02;;;0.50;;
53781;SDS011;39692;53.114;7.060;2022-12-07T15:43:22;2.50;;;0.93;;
53781;SDS011;39692;53.114;7.060;2022-12-07T15:46:07;2.00;;;0.57;;
53781;SDS011;39692;53.114;7.060;2022-12-07T15:48:33;2.45;;;0.73;;
53781;SDS011;39692;53.114;7.060;2022-12-07T15:51:06;1.23;;;0.50;;
53781;SDS011;39692;53.114;7.060;2022-12-07T15:53:33;2.65;;;0.73;;
53781;SDS011;39692;53.114;7.060;2022-12-07T15:55:59;2.67;;;0.98;;
53781;SDS011;39692;53.114;7.060;2022-12-07T15:58:25;4.85;;;1.30;;
53781;SDS011;39692;53.114;7.060;2022-12-07T16:00:52;2.10;;;1.30;;
53781;SDS011;39692;53.114;7.060;2022-12-07T16:03:18;2.78;;;1.23;;
53781;SDS011;39692;53.114;7.060;2022-12-07T16:05:51;3.03;;;1.45;;
53781;SDS011;39692;53.114;7.060;2022-12-07T16:08:18;2.30;;;1.05;;
53781;SDS011;39692;53.114;7.060;2022-12-07T16:10:44;3.88;;;1.13;;
53781;SDS011;39692;53.114;7.060;2022-12-07T16:13:10;1.70;;;0.98;;
53781;SDS011;39692;53.114;7.060;2022-12-07T16:15:39;2.80;;;1.80;;
53781;SDS011;39692;53.114;7.060;2022-12-07T16:18:06;4.07;;;0.93;;
53781;SDS011;39692;53.114;7.060;2022-12-07T16:20:32;1.65;;;0.60;;
53781;SDS011;39692;53.114;7.060;2022-12-07T16:22:58;1.27;;;0.60;;
53781;SDS011;39692;53.114;7.060;2022-12-07T16:25:24;2.17;;;0.73;;
53781;SDS011;39692;53.114;7.060;2022-12-07T16:27:51;2.85;;;0.77;;
53781;SDS011;39692;53.114;7.060;2022-12-07T16:30:17;3.88;;;0.90;;
53781;SDS011;39692;53.114;7.060;2022-12-07T16:32:43;1.33;;;0.65;;
53781;SDS011;39692;53.114;7.060;2022-12-07T16:35:09;2.38;;;0.60;;
53781;SDS011;39692;53.114;7.060;2022-12-07T16:37:36;0.93;;;0.50;;
53781;SDS011;39692;53.114;7.060;2022-12-07T16:40:02;2.35;;;0.90;;
53781;SDS011;39692;53.114;7.060;2022-12-07T16:42:32;1.52;;;0.80;;
53781;SDS011;39692;53.114;7.060;2022-12-07T16:44:58;1.63;;;0.60;;
53781;SDS011;39692;53.114;7.060;2022-12-07T16:47:24;1.23;;;0.50;;
53781;SDS011;39692;53.114;7.060;2022-12-07T16:49:50;5.28;;;0.75;;
53781;SDS011;39692;53.114;7.060;2022-12-07T16:52:17;0.85;;;0.50;;
53781;SDS011;39692;53.114;7.060;2022-12-07T16:54:44;0.65;;;0.40;;
53781;SDS011;39692;53.114;7.060;2022-12-07T16:57:10;1.08;;;0.50;;
53781;SDS011;39692;53.114;7.060;2022-12-07T16:59:36;4.30;;;0.63;;
53781;SDS011;39692;53.114;7.060;2022-12-07T17:02:02;5.65;;;1.25;;
53781;SDS011;39692;53.114;7.060;2022-12-07T17:04:28;1.95;;;0.60;;
53781;SDS011;39692;53.114;7.060;2022-12-07T17:06:54;1.08;;;0.60;;
53781;SDS011;39692;53.114;7.060;2022-12-07T17:09:20;2.55;;;1.00;;
53781;SDS011;39692;53.114;7.060;2022-12-07T17:11:47;2.65;;;0.95;;
53781;SDS011;39692;53.114;7.060;2022-12-07T17:14:13;0.98;;;0.60;;
53781;SDS011;39692;53.114;7.060;2022-12-07T17:16:58;4.43;;;0.95;;
53781;SDS011;39692;53.114;7.060;2022-12-07T17:19:24;3.80;;;0.80;;
53781;SDS011;39692;53.114;7.060;2022-12-07T17:21:50;2.90;;;1.08;;
53781;SDS011;39692;53.114;7.060;2022-12-07T17:24:16;3.83;;;1.50;;
53781;SDS011;39692;53.114;7.060;2022-12-07T17:26:43;3.65;;;1.23;;
53781;SDS011;39692;53.114;7.060;2022-12-07T17:29:10;6.30;;;1.60;;
53781;SDS011;39692;53.114;7.060;2022-12-07T17:31:36;2.15;;;1.35;;
53781;SDS011;39692;53.114;7.060;2022-12-07T17:34:02;6.57;;;2.08;;
53781;SDS011;39692;53.114;7.060;2022-12-07T17:36:29;4.40;;;1.67;;
53781;SDS011;39692;53.114;7.060;2022-12-07T17:38:56;2.92;;;1.50;;
53781;SDS011;39692;53.114;7.060;2022-12-07T17:41:23;3.75;;;1.63;;
53781;SDS011;39692;53.114;7.060;2022-12-07T17:44:09;1.85;;;1.00;;
53781;SDS011;39692;53.114;7.060;2022-12-07T17:46:35;1.50;;;0.80;;
53781;SDS011;39692;53.114;7.060;2022-12-07T17:49:02;3.30;;;1.10;;
53781;SDS011;39692;53.114;7.060;2022-12-07T17:51:28;1.27;;;0.60;;
53781;SDS011;39692;53.114;7.060;2022-12-07T17:54:13;1.95;;;0.93;;
53781;SDS011;39692;53.114;7.060;2022-12-07T17:56:39;1.95;;;0.90;;
53781;SDS011;39692;53.114;7.060;2022-12-07T17:59:06;2.40;;;0.90;;
53781;SDS011;39692;53.114;7.060;2022-12-07T18:01:32;6.57;;;0.93;;
53781;SDS011;39692;53.114;7.060;2022-12-07T18:03:58;1.65;;;0.63;;
53781;SDS011;39692;53.114;7.060;2022-12-07T18:06:24;2.05;;;0.90;;
53781;SDS011;39692;53.114;7.060;2022-12-07T18:08:50;1.35;;;0.63;;
53781;SDS011;39692;53.114;7.060;2022-12-07T18:11:16;1.90;;;0.57;;
53781;SDS011;39692;53.114;7.060;2022-12-07T18:13:43;1.10;;;0.52;;
53781;SDS011;39692;53.114;7.060;2022-12-07T18:16:13;1.38;;;0.60;;
53781;SDS011;39692;53.114;7.060;2022-12-07T18:18:42;1.58;;;0.63;;
53781;SDS011;39692;53.114;7.060;2022-12-07T18:21:12;5.60;;;1.00;;
53781;SDS011;39692;53.114;7.060;2022-12-07T18:23:40;2.30;;;0.90;;
53781;SDS011;39692;53.114;7.060;2022-12-07T18:26:06;3.88;;;1.35;;
53781;SDS011;39692;53.114;7.060;2022-12-07T18:28:32;1.70;;;0.90;;
53781;SDS011;39692;53.114;7.060;2022-12-07T18:30:58;5.47;;;1.30;;
53781;SDS011;39692;53.114;7.060;2022-12-07T18:33:24;4.00;;;1.42;;
53781;SDS011;39692;53.114;7.060;2022-12-07T18:35:50;2.45;;;1.27;;
53781;SDS011;39692;53.114;7.060;2022-12-07T18:38:17;3.17;;;1.23;;
53781;SDS011;39692;53.114;7.060;2022-12-07T18:40:43;2.35;;;1.35;;
53781;SDS011;39692;53.114;7.060;2022-12-07T18:43:10;5.15;;;2.05;;
53781;SDS011;39692;53.114;7.060;2022-12-07T18:45:37;2.67;;;1.50;;
53781;SDS011;39692;53.114;7.060;2022-12-07T18:48:03;4.40;;;1.77;;
53781;SDS011;39692;53.114;7.060;2022-12-07T18:50:29;4.72;;;1.85;;
53781;SDS011;39692;53.114;7.060;2022-12-07T18:52:56;2.60;;;1.35;;
53781;SDS011;39692;53.114;7.060;2022-12-07T18:55:23;2.78;;;1.33;;
53781;SDS011;39692;53.114;7.060;2022-12-07T18:57:50;3.15;;;1.60;;
53781;SDS011;39692;53.114;7.060;2022-12-07T19:00:16;3.42;;;1.48;;
53781;SDS011;39692;53.114;7.060;2022-12-07T19:02:42;2.97;;;1.23;;
53781;SDS011;39692;53.114;7.060;2022-12-07T19:05:08;3.17;;;1.25;;
53781;SDS011;39692;53.114;7.060;2022-12-07T19:07:34;3.40;;;1.33;;
53781;SDS011;39692;53.114;7.060;2022-12-07T19:10:00;2.58;;;1.55;;
53781;SDS011;39692;53.114;7.060;2022-12-07T19:12:27;1.65;;;1.10;;
53781;SDS011;39692;53.114;7.060;2022-12-07T19:14:53;3.47;;;1.95;;
53781;SDS011;39692;53.114;7.060;2022-12-07T19:17:19;4.20;;;1.75;;
53781;SDS011;39692;53.114;7.060;2022-12-07T19:19:46;3.83;;;1.92;;
53781;SDS011;39692;53.114;7.060;2022-12-07T19:22:14;2.88;;;1.73;;
53781;SDS011;39692;53.114;7.060;2022-12-07T19:24:41;3.47;;;1.80;;
53781;SDS011;39692;53.114;7.060;2022-12-07T19:27:08;2.33;;;1.40;;
53781;SDS011;39692;53.114;7.060;2022-12-07T19:29:34;3.53;;;2.08;;
53781;SDS011;39692;53.114;7.060;2022-12-07T19:32:00;2.72;;;1.55;;
53781;SDS011;39692;53.114;7.060;2022-12-07T19:34:27;2.92;;;1.45;;
53781;SDS011;39692;53.114;7.060;2022-12-07T19:36:53;2.95;;;1.85;;
53781;SDS011;39692;53.114;7.060;2022-12-07T19:39:19;3.28;;;1.65;;
53781;SDS011;39692;53.114;7.060;2022-12-07T19:41:44;2.60;;;0.90;;
53781;SDS011;39692;53.114;7.060;2022-12-07T19:44:14;3.38;;;1.63;;
53781;SDS011;39692;53.114;7.060;2022-12-07T19:46:42;2.30;;;1.25;;
53781;SDS011;39692;53.114;7.060;2022-12-07T19:49:10;2.33;;;1.20;;
53781;SDS011;39692;53.114;7.060;2022-12-07T19:51:40;2.00;;;1.02;;
53781;SDS011;39692;53.114;7.060;2022-12-07T19:54:11;2.72;;;1.20;;
53781;SDS011;39692;53.114;7.060;2022-12-07T19:56:38;2.25;;;1.08;;
53781;SDS011;39692;53.114;7.060;2022-12-07T19:59:05;1.42;;;0.70;;
53781;SDS011;39692;53.114;7.060;2022-12-07T20:01:31;4.88;;;1.30;;
53781;SDS011;39692;53.114;7.060;2022-12-07T20:03:58;3.33;;;1.95;;
53781;SDS011;39692;53.114;7.060;2022-12-07T20:06:24;1.80;;;1.10;;
53781;SDS011;39692;53.114;7.060;2022-12-07T20:08:50;2.70;;;1.25;;
53781;SDS011;39692;53.114;7.060;2022-12-07T20:11:16;3.17;;;1.55;;
53781;SDS011;39692;53.114;7.060;2022-12-07T20:14:04;2.35;;;1.23;;
53781;SDS011;39692;53.114;7.060;2022-12-07T20:16:31;2.47;;;1.33;;
53781;SDS011;39692;53.114;7.060;2022-12-07T20:18:58;3.78;;;1.33;;
53781;SDS011;39692;53.114;7.060;2022-12-07T20:21:24;2.28;;;1.13;;
53781;SDS011;39692;53.114;7.060;2022-12-07T20:23:49;2.83;;;1.33;;
53781;SDS011;39692;53.114;7.060;2022-12-07T20:26:15;1.88;;;1.17;;
53781;SDS011;39692;53.114;7.060;2022-12-07T20:28:41;4.90;;;1.70;;
53781;SDS011;39692;53.114;7.060;2022-12-07T20:31:10;6.00;;;1.33;;
53781;SDS011;39692;53.114;7.060;2022-12-07T20:33:39;2.42;;;1.30;;
53781;SDS011;39692;53.114;7.060;2022-12-07T20:36:06;3.65;;;1.70;;
53781;SDS011;39692;53.114;7.060;2022-12-07T20:38:33;2.65;;;1.27;;
53781;SDS011;39692;53.114;7.060;2022-12-07T20:41:00;4.45;;;1.77;;
53781;SDS011;39692;53.114;7.060;2022-12-07T20:43:28;4.03;;;1.40;;
53781;SDS011;39692;53.114;7.060;2022-12-07T20:45:54;5.57;;;1.98;;
53781;SDS011;39692;53.114;7.060;2022-12-07T20:48:20;3.40;;;1.30;;
53781;SDS011;39692;53.114;7.060;2022-12-07T20:50:47;4.80;;;1.52;;
53781;SDS011;39692;53.114;7.060;2022-12-07T20:53:12;3.97;;;1.80;;
53781;SDS011;39692;53.114;7.060;2022-12-07T20:55:38;4.72;;;1.90;;
53781;SDS011;39692;53.114;7.060;2022-12-07T20:58:04;5.05;;;2.15;;
53781;SDS011;39692;53.114;7.060;2022-12-07T21:00:31;4.10;;;2.25;;
53781;SDS011;39692;53.114;7.060;2022-12-07T21:02:57;4.10;;;2.08;;
53781;SDS011;39692;53.114;7.060;2022-12-07T21:05:23;6.00;;;2.33;;
53781;SDS011;39692;53.114;7.060;2022-12-07T21:07:49;6.00;;;2.22;;
53781;SDS011;39692;53.114;7.060;2022-12-07T21:10:14;2.97;;;1.70;;
53781;SDS011;39692;53.114;7.060;2022-12-07T21:12:40;3.60;;;2.00;;
53781;SDS011;39692;53.114;7.060;2022-12-07T21:15:06;4.97;;;1.77;;
53781;SDS011;39692;53.114;7.060;2022-12-07T21:17:33;3.65;;;2.17;;
53781;SDS011;39692;53.114;7.060;2022-12-07T21:19:59;6.88;;;2.25;;
53781;SDS011;39692;53.114;7.060;2022-12-07T21:22:25;3.10;;;1.90;;